sensor_id;sensor_type;location;lat;lon;timestamp;P1;durP1;ratioP1;P2;durP2;ratioP2
8230;SDS011;4156;50.908;6.974;2024-03-07T00:01:01;25.40;;;19.07;;
8230;SDS011;4156;50.908;6.974;2024-03-07T00:03:28;31.87;;;20.07;;
8230;SDS011;4156;50.908;6.974;2024-03-07T00:05:54;28.63;;;18.53;;
8230;SDS011;4156;50.908;6.974;2024-03-07T00:08:20;28.30;;;18.40;;
8230;SDS011;4156;50.908;6.974;2024-03-07T00:10:46;30.13;;;20.03;;
8230;SDS011;4156;50.908;6.974;2024-03-07T00:13:12;22.87;;;15.53;;
8230;SDS011;4156;50.908;6.974;2024-03-07T00:15:38;26.40;;;17.67;;
8230;SDS011;4156;50.908;6.974;2024-03-07T00:18:05;30.07;;;19.13;;
8230;SDS011;4156;50.908;6.974;2024-03-07T00:20:31;23.83;;;16.83;;
8230;SDS011;4156;50.908;6.974;2024-03-07T00:22:57;27.53;;;19.03;;
8230;SDS011;4156;50.908;6.974;2024-03-07T00:25:23;29.23;;;18.87;;
8230;SDS011;4156;50.908;6.974;2024-03-07T00:27:49;29.23;;;19.23;;
8230;SDS011;4156;50.908;6.974;2024-03-07T00:30:18;27.47;;;18.20;;
8230;SDS011;4156;50.908;6.974;2024-03-07T00:32:45;30.47;;;19.70;;
8230;SDS011;4156;50.908;6.974;2024-03-07T00:35:12;27.40;;;19.17;;
8230;SDS011;4156;50.908;6.974;2024-03-07T00:37:38;26.70;;;18.23;;
8230;SDS011;4156;50.908;6.974;2024-03-07T00:40:04;29.47;;;19.63;;
8230;SDS011;4156;50.908;6.974;2024-03-07T00:42:31;29.10;;;18.60;;
8230;SDS011;4156;50.908;6.974;2024-03-07T00:44:57;29.80;;;19.60;;
8230;SDS011;4156;50.908;6.974;2024-03-07T00:47:23;27.63;;;18.07;;
8230;SDS011;4156;50.908;6.974;2024-03-07T00:49:49;30.60;;;19.37;;
8230;SDS011;4156;50.908;6.974;2024-03-07T00:52:15;27.50;;;17.93;;
8230;SDS011;4156;50.908;6.974;2024-03-07T00:54:41;23.10;;;15.97;;
8230;SDS011;4156;50.908;6.974;2024-03-07T00:57:07;31.27;;;20.03;;
8230;SDS011;4156;50.908;6.974;2024-03-07T00:59:33;25.63;;;17.30;;
8230;SDS011;4156;50.908;6.974;2024-03-07T01:02:00;26.93;;;17.93;;
8230;SDS011;4156;50.908;6.974;2024-03-07T01:04:26;31.33;;;19.83;;
8230;SDS011;4156;50.908;6.974;2024-03-07T01:06:56;26.57;;;18.53;;
8230;SDS011;4156;50.908;6.974;2024-03-07T01:09:22;28.30;;;17.07;;
8230;SDS011;4156;50.908;6.974;2024-03-07T01:11:48;25.60;;;16.57;;
8230;SDS011;4156;50.908;6.974;2024-03-07T01:14:14;28.00;;;17.47;;
8230;SDS011;4156;50.908;6.974;2024-03-07T01:16:40;29.70;;;18.47;;
8230;SDS011;4156;50.908;6.974;2024-03-07T01:19:07;30.63;;;19.30;;
8230;SDS011;4156;50.908;6.974;2024-03-07T01:21:33;27.90;;;17.80;;
8230;SDS011;4156;50.908;6.974;2024-03-07T01:23:59;28.50;;;18.30;;
8230;SDS011;4156;50.908;6.974;2024-03-07T01:26:27;27.27;;;17.00;;
8230;SDS011;4156;50.908;6.974;2024-03-07T01:28:53;25.10;;;17.40;;
8230;SDS011;4156;50.908;6.974;2024-03-07T01:31:20;26.97;;;16.57;;
8230;SDS011;4156;50.908;6.974;2024-03-07T01:33:46;28.13;;;18.97;;
8230;SDS011;4156;50.908;6.974;2024-03-07T01:36:12;25.37;;;16.90;;
8230;SDS011;4156;50.908;6.974;2024-03-07T01:38:38;31.20;;;17.73;;
8230;SDS011;4156;50.908;6.974;2024-03-07T01:41:04;30.17;;;17.70;;
8230;SDS011;4156;50.908;6.974;2024-03-07T01:43:30;29.20;;;17.77;;
8230;SDS011;4156;50.908;6.974;2024-03-07T01:45:56;26.07;;;17.70;;
8230;SDS011;4156;50.908;6.974;2024-03-07T01:48:29;25.90;;;17.10;;
8230;SDS011;4156;50.908;6.974;2024-03-07T01:50:56;26.90;;;17.50;;
8230;SDS011;4156;50.908;6.974;2024-03-07T01:53:23;27.60;;;17.20;;
8230;SDS011;4156;50.908;6.974;2024-03-07T01:55:50;24.33;;;15.80;;
8230;SDS011;4156;50.908;6.974;2024-03-07T01:58:17;27.30;;;16.87;;
8230;SDS011;4156;50.908;6.974;2024-03-07T02:00:44;29.17;;;17.37;;
8230;SDS011;4156;50.908;6.974;2024-03-07T02:03:10;25.40;;;17.23;;
8230;SDS011;4156;50.908;6.974;2024-03-07T02:05:38;22.90;;;15.97;;
8230;SDS011;4156;50.908;6.974;2024-03-07T02:08:04;25.03;;;15.80;;
8230;SDS011;4156;50.908;6.974;2024-03-07T02:10:31;22.97;;;15.10;;
8230;SDS011;4156;50.908;6.974;2024-03-07T02:12:57;26.50;;;16.53;;
8230;SDS011;4156;50.908;6.974;2024-03-07T02:15:24;24.17;;;16.63;;
8230;SDS011;4156;50.908;6.974;2024-03-07T02:17:50;27.80;;;17.10;;
8230;SDS011;4156;50.908;6.974;2024-03-07T02:20:16;27.10;;;16.93;;
8230;SDS011;4156;50.908;6.974;2024-03-07T02:22:42;28.07;;;17.13;;
8230;SDS011;4156;50.908;6.974;2024-03-07T02:25:08;24.07;;;15.37;;
8230;SDS011;4156;50.908;6.974;2024-03-07T02:27:44;24.40;;;16.13;;
8230;SDS011;4156;50.908;6.974;2024-03-07T02:30:10;27.63;;;17.77;;
8230;SDS011;4156;50.908;6.974;2024-03-07T02:32:37;26.43;;;16.73;;
8230;SDS011;4156;50.908;6.974;2024-03-07T02:35:04;26.63;;;16.83;;
8230;SDS011;4156;50.908;6.974;2024-03-07T02:37:30;26.00;;;16.70;;
8230;SDS011;4156;50.908;6.974;2024-03-07T02:39:56;23.73;;;15.00;;
8230;SDS011;4156;50.908;6.974;2024-03-07T02:42:22;24.10;;;15.70;;
8230;SDS011;4156;50.908;6.974;2024-03-07T02:44:48;24.73;;;15.77;;
8230;SDS011;4156;50.908;6.974;2024-03-07T02:47:14;23.17;;;15.53;;
8230;SDS011;4156;50.908;6.974;2024-03-07T02:49:40;25.47;;;15.97;;
8230;SDS011;4156;50.908;6.974;2024-03-07T02:52:06;24.37;;;16.10;;
8230;SDS011;4156;50.908;6.974;2024-03-07T02:54:33;23.40;;;15.20;;
8230;SDS011;4156;50.908;6.974;2024-03-07T02:56:59;27.77;;;15.70;;
8230;SDS011;4156;50.908;6.974;2024-03-07T02:59:25;26.73;;;16.63;;
8230;SDS011;4156;50.908;6.974;2024-03-07T03:01:51;25.47;;;14.30;;
8230;SDS011;4156;50.908;6.974;2024-03-07T03:04:17;24.10;;;15.23;;
8230;SDS011;4156;50.908;6.974;2024-03-07T03:06:43;22.40;;;14.33;;
8230;SDS011;4156;50.908;6.974;2024-03-07T03:09:09;22.47;;;14.30;;
8230;SDS011;4156;50.908;6.974;2024-03-07T03:11:42;24.30;;;14.47;;
8230;SDS011;4156;50.908;6.974;2024-03-07T03:14:08;20.33;;;14.13;;
8230;SDS011;4156;50.908;6.974;2024-03-07T03:16:35;21.27;;;14.37;;
8230;SDS011;4156;50.908;6.974;2024-03-07T03:19:01;18.43;;;13.53;;
8230;SDS011;4156;50.908;6.974;2024-03-07T03:21:27;19.93;;;13.23;;
8230;SDS011;4156;50.908;6.974;2024-03-07T03:23:53;22.53;;;15.17;;
8230;SDS011;4156;50.908;6.974;2024-03-07T03:26:20;24.73;;;15.23;;
8230;SDS011;4156;50.908;6.974;2024-03-07T03:28:46;23.57;;;15.13;;
8230;SDS011;4156;50.908;6.974;2024-03-07T03:31:12;23.40;;;14.13;;
8230;SDS011;4156;50.908;6.974;2024-03-07T03:33:39;20.37;;;14.03;;
8230;SDS011;4156;50.908;6.974;2024-03-07T03:36:06;17.73;;;12.53;;
8230;SDS011;4156;50.908;6.974;2024-03-07T03:38:32;17.43;;;11.63;;
8230;SDS011;4156;50.908;6.974;2024-03-07T03:40:58;20.73;;;13.30;;
8230;SDS011;4156;50.908;6.974;2024-03-07T03:43:24;22.87;;;14.37;;
8230;SDS011;4156;50.908;6.974;2024-03-07T03:45:50;25.40;;;15.00;;
8230;SDS011;4156;50.908;6.974;2024-03-07T03:48:16;21.87;;;13.67;;
8230;SDS011;4156;50.908;6.974;2024-03-07T03:50:42;22.13;;;14.13;;
8230;SDS011;4156;50.908;6.974;2024-03-07T03:53:08;24.33;;;15.47;;
8230;SDS011;4156;50.908;6.974;2024-03-07T03:55:34;24.93;;;15.13;;
8230;SDS011;4156;50.908;6.974;2024-03-07T03:58:00;23.40;;;13.80;;
8230;SDS011;4156;50.908;6.974;2024-03-07T04:00:26;21.43;;;14.23;;
8230;SDS011;4156;50.908;6.974;2024-03-07T04:02:53;25.10;;;15.87;;
8230;SDS011;4156;50.908;6.974;2024-03-07T04:05:19;24.53;;;15.30;;
8230;SDS011;4156;50.908;6.974;2024-03-07T04:07:46;23.03;;;15.27;;
8230;SDS011;4156;50.908;6.974;2024-03-07T04:10:15;26.07;;;14.73;;
8230;SDS011;4156;50.908;6.974;2024-03-07T04:12:41;23.67;;;14.83;;
8230;SDS011;4156;50.908;6.974;2024-03-07T04:15:08;23.17;;;14.30;;
8230;SDS011;4156;50.908;6.974;2024-03-07T04:17:37;24.23;;;15.13;;
8230;SDS011;4156;50.908;6.974;2024-03-07T04:20:04;22.80;;;15.60;;
8230;SDS011;4156;50.908;6.974;2024-03-07T04:22:30;24.57;;;15.20;;
8230;SDS011;4156;50.908;6.974;2024-03-07T04:24:56;21.87;;;15.13;;
8230;SDS011;4156;50.908;6.974;2024-03-07T04:27:23;25.10;;;14.13;;
8230;SDS011;4156;50.908;6.974;2024-03-07T04:29:51;22.10;;;14.77;;
8230;SDS011;4156;50.908;6.974;2024-03-07T04:32:17;23.03;;;14.23;;
8230;SDS011;4156;50.908;6.974;2024-03-07T04:34:43;22.73;;;14.73;;
8230;SDS011;4156;50.908;6.974;2024-03-07T04:37:09;24.70;;;15.10;;
8230;SDS011;4156;50.908;6.974;2024-03-07T04:39:36;22.67;;;14.33;;
8230;SDS011;4156;50.908;6.974;2024-03-07T04:42:02;17.73;;;12.97;;
8230;SDS011;4156;50.908;6.974;2024-03-07T04:44:28;20.87;;;13.33;;
8230;SDS011;4156;50.908;6.974;2024-03-07T04:46:55;23.20;;;15.37;;
8230;SDS011;4156;50.908;6.974;2024-03-07T04:49:22;24.03;;;14.70;;
8230;SDS011;4156;50.908;6.974;2024-03-07T04:51:49;20.83;;;12.77;;
8230;SDS011;4156;50.908;6.974;2024-03-07T04:54:15;20.57;;;14.30;;
8230;SDS011;4156;50.908;6.974;2024-03-07T04:56:41;26.73;;;16.53;;
8230;SDS011;4156;50.908;6.974;2024-03-07T04:59:07;24.17;;;13.97;;
8230;SDS011;4156;50.908;6.974;2024-03-07T05:01:33;20.40;;;13.47;;
8230;SDS011;4156;50.908;6.974;2024-03-07T05:03:59;23.80;;;15.53;;
8230;SDS011;4156;50.908;6.974;2024-03-07T05:06:25;20.90;;;14.33;;
8230;SDS011;4156;50.908;6.974;2024-03-07T05:08:51;23.80;;;15.13;;
8230;SDS011;4156;50.908;6.974;2024-03-07T05:11:17;22.47;;;15.03;;
8230;SDS011;4156;50.908;6.974;2024-03-07T05:13:43;25.43;;;15.70;;
8230;SDS011;4156;50.908;6.974;2024-03-07T05:16:09;25.23;;;15.00;;
8230;SDS011;4156;50.908;6.974;2024-03-07T05:18:35;26.97;;;16.00;;
8230;SDS011;4156;50.908;6.974;2024-03-07T05:21:01;20.23;;;14.20;;
8230;SDS011;4156;50.908;6.974;2024-03-07T05:23:47;23.83;;;14.90;;
8230;SDS011;4156;50.908;6.974;2024-03-07T05:26:14;24.40;;;15.33;;
8230;SDS011;4156;50.908;6.974;2024-03-07T05:28:40;25.83;;;15.60;;
8230;SDS011;4156;50.908;6.974;2024-03-07T05:31:06;23.73;;;16.10;;
8230;SDS011;4156;50.908;6.974;2024-03-07T05:33:32;21.20;;;14.03;;
8230;SDS011;4156;50.908;6.974;2024-03-07T05:35:58;24.43;;;16.20;;
8230;SDS011;4156;50.908;6.974;2024-03-07T05:38:39;26.63;;;16.40;;
8230;SDS011;4156;50.908;6.974;2024-03-07T05:41:05;24.80;;;16.10;;
8230;SDS011;4156;50.908;6.974;2024-03-07T05:43:31;25.93;;;15.77;;
8230;SDS011;4156;50.908;6.974;2024-03-07T05:45:57;23.27;;;15.87;;
8230;SDS011;4156;50.908;6.974;2024-03-07T05:48:25;24.17;;;15.60;;
8230;SDS011;4156;50.908;6.974;2024-03-07T05:50:51;26.10;;;17.23;;
8230;SDS011;4156;50.908;6.974;2024-03-07T05:53:17;25.63;;;15.07;;
8230;SDS011;4156;50.908;6.974;2024-03-07T05:55:43;24.57;;;15.47;;
8230;SDS011;4156;50.908;6.974;2024-03-07T05:58:10;25.70;;;16.60;;
8230;SDS011;4156;50.908;6.974;2024-03-07T06:00:37;22.83;;;14.73;;
8230;SDS011;4156;50.908;6.974;2024-03-07T06:03:06;26.40;;;16.10;;
8230;SDS011;4156;50.908;6.974;2024-03-07T06:05:33;25.13;;;15.60;;
8230;SDS011;4156;50.908;6.974;2024-03-07T06:07:59;25.80;;;16.17;;
8230;SDS011;4156;50.908;6.974;2024-03-07T06:10:25;25.73;;;17.60;;
8230;SDS011;4156;50.908;6.974;2024-03-07T06:12:52;26.60;;;15.70;;
8230;SDS011;4156;50.908;6.974;2024-03-07T06:15:18;23.30;;;14.60;;
8230;SDS011;4156;50.908;6.974;2024-03-07T06:17:45;24.30;;;15.97;;
8230;SDS011;4156;50.908;6.974;2024-03-07T06:20:12;21.30;;;14.93;;
8230;SDS011;4156;50.908;6.974;2024-03-07T06:22:50;28.20;;;17.63;;
8230;SDS011;4156;50.908;6.974;2024-03-07T06:25:17;21.37;;;15.70;;
8230;SDS011;4156;50.908;6.974;2024-03-07T06:27:59;22.10;;;15.27;;
8230;SDS011;4156;50.908;6.974;2024-03-07T06:30:33;24.00;;;15.83;;
8230;SDS011;4156;50.908;6.974;2024-03-07T06:32:59;21.97;;;15.07;;
8230;SDS011;4156;50.908;6.974;2024-03-07T06:35:25;24.87;;;17.53;;
8230;SDS011;4156;50.908;6.974;2024-03-07T06:37:51;23.17;;;15.47;;
8230;SDS011;4156;50.908;6.974;2024-03-07T06:40:17;24.57;;;16.50;;
8230;SDS011;4156;50.908;6.974;2024-03-07T06:42:47;24.73;;;15.80;;
8230;SDS011;4156;50.908;6.974;2024-03-07T06:45:13;25.73;;;16.90;;
8230;SDS011;4156;50.908;6.974;2024-03-07T06:47:39;25.77;;;17.33;;
8230;SDS011;4156;50.908;6.974;2024-03-07T06:50:06;22.30;;;15.23;;
8230;SDS011;4156;50.908;6.974;2024-03-07T06:52:34;22.00;;;15.10;;
8230;SDS011;4156;50.908;6.974;2024-03-07T06:55:00;26.53;;;17.27;;
8230;SDS011;4156;50.908;6.974;2024-03-07T06:57:27;21.57;;;14.27;;
8230;SDS011;4156;50.908;6.974;2024-03-07T06:59:53;23.77;;;17.20;;
8230;SDS011;4156;50.908;6.974;2024-03-07T07:02:20;23.17;;;15.63;;
8230;SDS011;4156;50.908;6.974;2024-03-07T07:04:46;22.33;;;15.33;;
8230;SDS011;4156;50.908;6.974;2024-03-07T07:07:13;26.33;;;14.83;;
8230;SDS011;4156;50.908;6.974;2024-03-07T07:09:39;25.37;;;15.80;;
8230;SDS011;4156;50.908;6.974;2024-03-07T07:12:05;25.10;;;16.00;;
8230;SDS011;4156;50.908;6.974;2024-03-07T07:14:32;26.20;;;15.40;;
8230;SDS011;4156;50.908;6.974;2024-03-07T07:17:01;20.70;;;13.77;;
8230;SDS011;4156;50.908;6.974;2024-03-07T07:19:26;27.57;;;15.63;;
8230;SDS011;4156;50.908;6.974;2024-03-07T07:21:53;25.27;;;14.80;;
8230;SDS011;4156;50.908;6.974;2024-03-07T07:24:25;24.53;;;15.63;;
8230;SDS011;4156;50.908;6.974;2024-03-07T07:26:53;23.33;;;15.33;;
8230;SDS011;4156;50.908;6.974;2024-03-07T07:29:19;24.17;;;15.23;;
8230;SDS011;4156;50.908;6.974;2024-03-07T07:31:45;21.90;;;14.17;;
8230;SDS011;4156;50.908;6.974;2024-03-07T07:34:11;21.73;;;15.40;;
8230;SDS011;4156;50.908;6.974;2024-03-07T07:36:37;23.00;;;16.40;;
8230;SDS011;4156;50.908;6.974;2024-03-07T07:39:03;22.00;;;14.70;;
8230;SDS011;4156;50.908;6.974;2024-03-07T07:41:29;25.50;;;15.83;;
8230;SDS011;4156;50.908;6.974;2024-03-07T07:43:56;24.90;;;16.43;;
8230;SDS011;4156;50.908;6.974;2024-03-07T07:46:22;26.37;;;16.10;;
8230;SDS011;4156;50.908;6.974;2024-03-07T07:48:48;22.67;;;15.03;;
8230;SDS011;4156;50.908;6.974;2024-03-07T07:51:14;20.63;;;13.43;;
8230;SDS011;4156;50.908;6.974;2024-03-07T07:53:40;20.40;;;13.23;;
8230;SDS011;4156;50.908;6.974;2024-03-07T07:56:07;19.87;;;13.73;;
8230;SDS011;4156;50.908;6.974;2024-03-07T07:58:33;20.63;;;13.90;;
8230;SDS011;4156;50.908;6.974;2024-03-07T08:00:59;20.97;;;13.93;;
8230;SDS011;4156;50.908;6.974;2024-03-07T08:03:25;20.53;;;14.10;;
8230;SDS011;4156;50.908;6.974;2024-03-07T08:05:51;20.03;;;14.47;;
8230;SDS011;4156;50.908;6.974;2024-03-07T08:08:19;19.17;;;13.17;;
8230;SDS011;4156;50.908;6.974;2024-03-07T08:10:46;23.93;;;13.97;;
8230;SDS011;4156;50.908;6.974;2024-03-07T08:13:13;18.90;;;13.03;;
8230;SDS011;4156;50.908;6.974;2024-03-07T08:15:39;21.13;;;13.70;;
8230;SDS011;4156;50.908;6.974;2024-03-07T08:18:06;21.93;;;12.70;;
8230;SDS011;4156;50.908;6.974;2024-03-07T08:20:33;24.97;;;13.17;;
8230;SDS011;4156;50.908;6.974;2024-03-07T08:22:59;21.53;;;13.17;;
8230;SDS011;4156;50.908;6.974;2024-03-07T08:25:26;17.43;;;11.97;;
8230;SDS011;4156;50.908;6.974;2024-03-07T08:27:53;19.60;;;11.43;;
8230;SDS011;4156;50.908;6.974;2024-03-07T08:30:19;14.63;;;10.93;;
8230;SDS011;4156;50.908;6.974;2024-03-07T08:32:46;18.17;;;12.30;;
8230;SDS011;4156;50.908;6.974;2024-03-07T08:35:12;18.70;;;12.13;;
8230;SDS011;4156;50.908;6.974;2024-03-07T08:37:39;17.13;;;12.27;;
8230;SDS011;4156;50.908;6.974;2024-03-07T08:40:06;15.73;;;11.37;;
8230;SDS011;4156;50.908;6.974;2024-03-07T08:42:35;16.50;;;11.57;;
8230;SDS011;4156;50.908;6.974;2024-03-07T08:45:02;16.80;;;11.33;;
8230;SDS011;4156;50.908;6.974;2024-03-07T08:47:32;15.87;;;10.47;;
8230;SDS011;4156;50.908;6.974;2024-03-07T08:49:58;14.90;;;9.67;;
8230;SDS011;4156;50.908;6.974;2024-03-07T08:52:24;18.63;;;11.73;;
8230;SDS011;4156;50.908;6.974;2024-03-07T08:54:50;18.73;;;11.07;;
8230;SDS011;4156;50.908;6.974;2024-03-07T08:57:16;17.70;;;10.07;;
8230;SDS011;4156;50.908;6.974;2024-03-07T08:59:43;17.83;;;10.83;;
8230;SDS011;4156;50.908;6.974;2024-03-07T09:02:09;17.43;;;10.93;;
8230;SDS011;4156;50.908;6.974;2024-03-07T09:04:36;13.67;;;9.83;;
8230;SDS011;4156;50.908;6.974;2024-03-07T09:07:03;14.20;;;10.07;;
8230;SDS011;4156;50.908;6.974;2024-03-07T09:09:30;15.83;;;9.87;;
8230;SDS011;4156;50.908;6.974;2024-03-07T09:11:56;13.83;;;10.00;;
8230;SDS011;4156;50.908;6.974;2024-03-07T09:14:22;13.83;;;9.30;;
8230;SDS011;4156;50.908;6.974;2024-03-07T09:16:48;16.17;;;10.53;;
8230;SDS011;4156;50.908;6.974;2024-03-07T09:19:14;17.63;;;9.67;;
8230;SDS011;4156;50.908;6.974;2024-03-07T09:21:45;17.37;;;10.40;;
8230;SDS011;4156;50.908;6.974;2024-03-07T09:24:11;16.30;;;10.83;;
8230;SDS011;4156;50.908;6.974;2024-03-07T09:26:37;16.77;;;10.43;;
8230;SDS011;4156;50.908;6.974;2024-03-07T09:29:04;15.83;;;10.53;;
8230;SDS011;4156;50.908;6.974;2024-03-07T09:31:34;14.73;;;9.93;;
8230;SDS011;4156;50.908;6.974;2024-03-07T09:34:05;17.13;;;10.03;;
8230;SDS011;4156;50.908;6.974;2024-03-07T09:36:44;14.47;;;10.13;;
8230;SDS011;4156;50.908;6.974;2024-03-07T09:39:24;14.83;;;10.40;;
8230;SDS011;4156;50.908;6.974;2024-03-07T09:41:53;14.10;;;9.87;;
8230;SDS011;4156;50.908;6.974;2024-03-07T09:44:26;14.83;;;9.63;;
8230;SDS011;4156;50.908;6.974;2024-03-07T09:46:55;13.57;;;9.70;;
8230;SDS011;4156;50.908;6.974;2024-03-07T09:49:58;13.73;;;10.13;;
8230;SDS011;4156;50.908;6.974;2024-03-07T09:52:25;13.77;;;9.57;;
8230;SDS011;4156;50.908;6.974;2024-03-07T09:54:54;18.87;;;10.20;;
8230;SDS011;4156;50.908;6.974;2024-03-07T09:57:24;14.20;;;9.03;;
8230;SDS011;4156;50.908;6.974;2024-03-07T09:59:52;14.97;;;9.20;;
8230;SDS011;4156;50.908;6.974;2024-03-07T10:02:28;16.07;;;10.17;;
8230;SDS011;4156;50.908;6.974;2024-03-07T10:04:55;11.90;;;8.70;;
8230;SDS011;4156;50.908;6.974;2024-03-07T10:07:36;14.47;;;9.63;;
8230;SDS011;4156;50.908;6.974;2024-03-07T10:10:11;16.87;;;9.83;;
8230;SDS011;4156;50.908;6.974;2024-03-07T10:12:43;18.07;;;10.63;;
8230;SDS011;4156;50.908;6.974;2024-03-07T10:15:11;15.70;;;9.53;;
8230;SDS011;4156;50.908;6.974;2024-03-07T10:17:41;14.10;;;9.63;;
8230;SDS011;4156;50.908;6.974;2024-03-07T10:20:08;16.10;;;10.20;;
8230;SDS011;4156;50.908;6.974;2024-03-07T10:22:39;15.27;;;10.37;;
8230;SDS011;4156;50.908;6.974;2024-03-07T10:25:20;14.73;;;10.00;;
8230;SDS011;4156;50.908;6.974;2024-03-07T10:28:18;16.10;;;10.30;;
8230;SDS011;4156;50.908;6.974;2024-03-07T10:30:47;15.60;;;10.00;;
8230;SDS011;4156;50.908;6.974;2024-03-07T10:33:16;14.97;;;10.40;;
8230;SDS011;4156;50.908;6.974;2024-03-07T10:36:01;16.00;;;10.33;;
8230;SDS011;4156;50.908;6.974;2024-03-07T10:38:27;13.33;;;9.83;;
8230;SDS011;4156;50.908;6.974;2024-03-07T10:40:53;16.20;;;10.10;;
8230;SDS011;4156;50.908;6.974;2024-03-07T10:43:26;16.20;;;10.33;;
8230;SDS011;4156;50.908;6.974;2024-03-07T10:45:55;16.40;;;10.23;;
8230;SDS011;4156;50.908;6.974;2024-03-07T10:48:24;17.13;;;10.73;;
8230;SDS011;4156;50.908;6.974;2024-03-07T10:53:32;16.93;;;10.37;;
8230;SDS011;4156;50.908;6.974;2024-03-07T10:56:31;16.47;;;10.03;;
8230;SDS011;4156;50.908;6.974;2024-03-07T10:59:18;15.33;;;9.40;;
8230;SDS011;4156;50.908;6.974;2024-03-07T11:04:35;16.97;;;11.17;;
8230;SDS011;4156;50.908;6.974;2024-03-07T11:07:31;13.20;;;9.17;;
8230;SDS011;4156;50.908;6.974;2024-03-07T11:10:00;19.87;;;10.30;;
8230;SDS011;4156;50.908;6.974;2024-03-07T11:12:45;14.90;;;9.80;;
8230;SDS011;4156;50.908;6.974;2024-03-07T11:15:16;13.87;;;9.27;;
8230;SDS011;4156;50.908;6.974;2024-03-07T11:17:44;15.37;;;9.73;;
8230;SDS011;4156;50.908;6.974;2024-03-07T11:20:27;13.67;;;9.90;;
8230;SDS011;4156;50.908;6.974;2024-03-07T11:22:54;15.03;;;9.90;;
8230;SDS011;4156;50.908;6.974;2024-03-07T11:25:28;13.37;;;9.40;;
8230;SDS011;4156;50.908;6.974;2024-03-07T11:27:59;14.80;;;9.97;;
8230;SDS011;4156;50.908;6.974;2024-03-07T11:30:26;14.20;;;9.73;;
8230;SDS011;4156;50.908;6.974;2024-03-07T11:32:53;15.97;;;10.30;;
8230;SDS011;4156;50.908;6.974;2024-03-07T11:35:31;15.07;;;8.63;;
8230;SDS011;4156;50.908;6.974;2024-03-07T11:38:00;15.17;;;9.20;;
8230;SDS011;4156;50.908;6.974;2024-03-07T11:42:58;16.70;;;10.07;;
8230;SDS011;4156;50.908;6.974;2024-03-07T11:45:29;15.30;;;9.90;;
8230;SDS011;4156;50.908;6.974;2024-03-07T11:48:03;14.50;;;8.67;;
8230;SDS011;4156;50.908;6.974;2024-03-07T11:50:33;13.73;;;9.20;;
8230;SDS011;4156;50.908;6.974;2024-03-07T11:53:03;13.50;;;8.33;;
8230;SDS011;4156;50.908;6.974;2024-03-07T11:55:35;12.97;;;8.10;;
8230;SDS011;4156;50.908;6.974;2024-03-07T11:58:14;13.53;;;8.87;;
8230;SDS011;4156;50.908;6.974;2024-03-07T12:00:46;17.13;;;9.37;;
8230;SDS011;4156;50.908;6.974;2024-03-07T12:03:12;14.27;;;9.43;;
8230;SDS011;4156;50.908;6.974;2024-03-07T12:05:43;13.03;;;9.23;;
8230;SDS011;4156;50.908;6.974;2024-03-07T12:17:20;15.00;;;9.53;;
8230;SDS011;4156;50.908;6.974;2024-03-07T12:19:46;11.40;;;8.17;;
8230;SDS011;4156;50.908;6.974;2024-03-07T12:22:13;14.43;;;8.67;;
8230;SDS011;4156;50.908;6.974;2024-03-07T12:24:40;13.57;;;7.50;;
8230;SDS011;4156;50.908;6.974;2024-03-07T12:27:08;12.43;;;8.00;;
8230;SDS011;4156;50.908;6.974;2024-03-07T12:29:35;12.57;;;7.63;;
8230;SDS011;4156;50.908;6.974;2024-03-07T12:32:03;11.17;;;7.37;;
8230;SDS011;4156;50.908;6.974;2024-03-07T12:34:31;10.17;;;7.27;;
8230;SDS011;4156;50.908;6.974;2024-03-07T12:37:01;12.43;;;8.20;;
8230;SDS011;4156;50.908;6.974;2024-03-07T12:39:28;12.77;;;8.33;;
8230;SDS011;4156;50.908;6.974;2024-03-07T12:42:01;13.30;;;7.97;;
8230;SDS011;4156;50.908;6.974;2024-03-07T12:44:28;12.67;;;7.27;;
8230;SDS011;4156;50.908;6.974;2024-03-07T12:46:54;9.07;;;7.10;;
8230;SDS011;4156;50.908;6.974;2024-03-07T12:49:24;9.97;;;6.00;;
8230;SDS011;4156;50.908;6.974;2024-03-07T12:51:53;10.00;;;6.63;;
8230;SDS011;4156;50.908;6.974;2024-03-07T12:54:20;10.27;;;6.83;;
8230;SDS011;4156;50.908;6.974;2024-03-07T12:56:47;10.30;;;6.70;;
8230;SDS011;4156;50.908;6.974;2024-03-07T12:59:27;8.47;;;6.10;;
8230;SDS011;4156;50.908;6.974;2024-03-07T13:01:54;11.27;;;6.50;;
8230;SDS011;4156;50.908;6.974;2024-03-07T13:04:22;10.13;;;6.33;;
8230;SDS011;4156;50.908;6.974;2024-03-07T13:06:52;9.80;;;6.07;;
8230;SDS011;4156;50.908;6.974;2024-03-07T13:09:19;8.20;;;6.50;;
8230;SDS011;4156;50.908;6.974;2024-03-07T13:12:10;7.80;;;6.13;;
8230;SDS011;4156;50.908;6.974;2024-03-07T13:14:39;11.23;;;7.63;;
8230;SDS011;4156;50.908;6.974;2024-03-07T13:17:05;8.67;;;6.03;;
8230;SDS011;4156;50.908;6.974;2024-03-07T13:19:31;11.07;;;6.50;;
8230;SDS011;4156;50.908;6.974;2024-03-07T13:21:57;9.13;;;5.93;;
8230;SDS011;4156;50.908;6.974;2024-03-07T13:24:27;8.97;;;6.10;;
8230;SDS011;4156;50.908;6.974;2024-03-07T13:26:53;10.07;;;6.90;;
8230;SDS011;4156;50.908;6.974;2024-03-07T13:29:19;10.43;;;7.13;;
8230;SDS011;4156;50.908;6.974;2024-03-07T13:31:51;12.47;;;7.67;;
8230;SDS011;4156;50.908;6.974;2024-03-07T13:34:20;12.27;;;7.60;;
8230;SDS011;4156;50.908;6.974;2024-03-07T13:36:46;9.53;;;6.67;;
8230;SDS011;4156;50.908;6.974;2024-03-07T13:39:17;12.23;;;8.03;;
8230;SDS011;4156;50.908;6.974;2024-03-07T13:41:43;11.50;;;8.33;;
8230;SDS011;4156;50.908;6.974;2024-03-07T13:44:14;9.63;;;6.43;;
8230;SDS011;4156;50.908;6.974;2024-03-07T13:46:40;9.57;;;6.80;;
8230;SDS011;4156;50.908;6.974;2024-03-07T13:49:06;7.70;;;5.93;;
8230;SDS011;4156;50.908;6.974;2024-03-07T13:51:37;12.00;;;6.33;;
8230;SDS011;4156;50.908;6.974;2024-03-07T13:54:04;11.37;;;7.43;;
8230;SDS011;4156;50.908;6.974;2024-03-07T13:56:55;11.57;;;8.13;;
8230;SDS011;4156;50.908;6.974;2024-03-07T14:02:25;10.80;;;7.33;;
8230;SDS011;4156;50.908;6.974;2024-03-07T14:15:47;9.20;;;6.17;;
8230;SDS011;4156;50.908;6.974;2024-03-07T14:29:19;8.87;;;6.47;;
8230;SDS011;4156;50.908;6.974;2024-03-07T14:31:50;9.33;;;6.30;;
8230;SDS011;4156;50.908;6.974;2024-03-07T14:34:24;9.03;;;6.43;;
8230;SDS011;4156;50.908;6.974;2024-03-07T14:37:03;9.27;;;6.70;;
8230;SDS011;4156;50.908;6.974;2024-03-07T14:39:31;8.67;;;6.10;;
8230;SDS011;4156;50.908;6.974;2024-03-07T14:42:04;8.60;;;6.03;;
8230;SDS011;4156;50.908;6.974;2024-03-07T14:44:42;9.77;;;6.77;;
8230;SDS011;4156;50.908;6.974;2024-03-07T14:47:11;10.20;;;6.53;;
8230;SDS011;4156;50.908;6.974;2024-03-07T14:49:39;10.67;;;6.77;;
8230;SDS011;4156;50.908;6.974;2024-03-07T14:52:06;8.33;;;6.27;;
8230;SDS011;4156;50.908;6.974;2024-03-07T14:54:40;8.57;;;6.07;;
8230;SDS011;4156;50.908;6.974;2024-03-07T14:57:07;11.47;;;6.90;;
8230;SDS011;4156;50.908;6.974;2024-03-07T14:59:36;9.00;;;6.10;;
8230;SDS011;4156;50.908;6.974;2024-03-07T15:02:05;10.73;;;6.10;;
8230;SDS011;4156;50.908;6.974;2024-03-07T15:04:35;9.40;;;5.70;;
8230;SDS011;4156;50.908;6.974;2024-03-07T15:07:05;9.23;;;5.90;;
8230;SDS011;4156;50.908;6.974;2024-03-07T15:09:31;8.13;;;5.80;;
8230;SDS011;4156;50.908;6.974;2024-03-07T15:12:00;8.83;;;5.67;;
8230;SDS011;4156;50.908;6.974;2024-03-07T15:14:26;7.23;;;5.37;;
8230;SDS011;4156;50.908;6.974;2024-03-07T15:23:13;9.17;;;5.87;;
8230;SDS011;4156;50.908;6.974;2024-03-07T15:25:39;7.23;;;5.63;;
8230;SDS011;4156;50.908;6.974;2024-03-07T15:28:05;6.97;;;5.40;;
8230;SDS011;4156;50.908;6.974;2024-03-07T15:30:31;8.27;;;5.83;;
8230;SDS011;4156;50.908;6.974;2024-03-07T15:32:59;7.57;;;5.77;;
8230;SDS011;4156;50.908;6.974;2024-03-07T15:35:26;7.13;;;5.20;;
8230;SDS011;4156;50.908;6.974;2024-03-07T15:37:52;7.73;;;5.60;;
8230;SDS011;4156;50.908;6.974;2024-03-07T15:40:19;9.37;;;6.43;;
8230;SDS011;4156;50.908;6.974;2024-03-07T15:42:46;8.60;;;5.80;;
8230;SDS011;4156;50.908;6.974;2024-03-07T15:45:13;9.80;;;6.00;;
8230;SDS011;4156;50.908;6.974;2024-03-07T15:50:10;10.63;;;6.70;;